createdAt,value
2023-11-30T00:00:48.721Z,95288.56
2023-11-30T00:03:20.482Z,95283.91
2023-11-30T00:05:52.207Z,95284.13
2023-11-30T00:08:24.135Z,95280.00
2023-11-30T00:10:55.706Z,95282.72
2023-11-30T00:13:27.481Z,95284.50
2023-11-30T00:15:59.053Z,95280.31
2023-11-30T00:18:30.751Z,95286.06
2023-11-30T00:21:02.515Z,95274.53
2023-11-30T00:23:36.160Z,95275.97
2023-11-30T00:26:07.811Z,95280.69
2023-11-30T00:28:39.440Z,95287.72
2023-11-30T00:31:11.150Z,95284.13
2023-11-30T00:33:42.899Z,95268.16
2023-11-30T00:36:14.553Z,95276.09
2023-11-30T00:38:46.362Z,95272.25
2023-11-30T00:41:18.240Z,95276.41
2023-11-30T00:43:49.909Z,95266.47
2023-11-30T00:46:21.495Z,95261.63
2023-11-30T00:48:53.224Z,95258.59
2023-11-30T00:51:24.953Z,95258.16
2023-11-30T00:53:56.874Z,95253.50
2023-11-30T00:56:28.472Z,95254.03
2023-11-30T00:59:00.086Z,95254.69
2023-11-30T01:01:31.916Z,95239.84
2023-11-30T01:04:03.780Z,95244.38
2023-11-30T01:06:35.893Z,95238.06
2023-11-30T01:09:08.591Z,95239.72
2023-11-30T01:11:44.879Z,95255.13
2023-11-30T01:14:17.167Z,95257.53
2023-11-30T01:16:48.868Z,95238.41
2023-11-30T01:19:20.472Z,95234.03
2023-11-30T01:21:52.194Z,95232.22
2023-11-30T01:24:24.751Z,95234.31
2023-11-30T01:26:56.361Z,95222.50
2023-11-30T01:29:28.049Z,95229.75
2023-11-30T01:32:00.016Z,95230.31
2023-11-30T01:34:31.650Z,95220.03
2023-11-30T01:37:03.272Z,95230.50
2023-11-30T01:39:34.798Z,95229.03
2023-11-30T01:42:06.613Z,95222.25
2023-11-30T01:44:38.209Z,95234.91
2023-11-30T01:47:10.064Z,95227.75
2023-11-30T01:49:41.807Z,95227.75
2023-11-30T01:52:13.400Z,95237.44
2023-11-30T01:54:46.066Z,95236.53
2023-11-30T01:57:17.996Z,95228.75
2023-11-30T01:59:49.950Z,95223.94
2023-11-30T02:02:21.966Z,95220.72
2023-11-30T02:04:54.378Z,95219.13
2023-11-30T02:07:25.974Z,95225.41
2023-11-30T02:09:57.769Z,95213.66
2023-11-30T02:12:29.455Z,95209.38
2023-11-30T02:15:01.246Z,95211.25
2023-11-30T02:17:33.017Z,95207.16
2023-11-30T02:20:06.109Z,95207.38
2023-11-30T02:22:37.835Z,95205.25
2023-11-30T02:25:09.438Z,95201.03
2023-11-30T02:27:41.134Z,95198.22
2023-11-30T02:30:13.816Z,95193.22
2023-11-30T02:32:45.511Z,95206.47
2023-11-30T02:35:17.418Z,95196.81
2023-11-30T02:37:48.988Z,95208.47
2023-11-30T02:40:20.613Z,95210.59
2023-11-30T02:42:52.325Z,95207.63
2023-11-30T02:45:23.941Z,95202.00
2023-11-30T02:47:55.581Z,95197.94
2023-11-30T02:50:27.268Z,95188.19
2023-11-30T02:52:58.949Z,95189.94
2023-11-30T02:55:30.590Z,95186.03
2023-11-30T02:58:02.233Z,95184.66
2023-11-30T03:00:33.968Z,95187.19
2023-11-30T03:03:05.713Z,95181.19
2023-11-30T03:05:37.329Z,95169.16
2023-11-30T03:08:09.144Z,95173.34
2023-11-30T03:10:40.717Z,95176.22
2023-11-30T03:13:12.459Z,95168.75
2023-11-30T03:15:46.000Z,95158.66
2023-11-30T03:18:17.652Z,95172.88
2023-11-30T03:20:49.288Z,95186.84
2023-11-30T03:23:20.833Z,95177.03
2023-11-30T03:25:52.416Z,95185.56
2023-11-30T03:28:23.950Z,95186.31
2023-11-30T03:30:55.448Z,95195.22
2023-11-30T03:33:27.001Z,95185.81
2023-11-30T03:35:58.899Z,95177.25
2023-11-30T03:38:30.727Z,95183.44
2023-11-30T03:41:02.294Z,95186.16
2023-11-30T03:43:33.851Z,95194.50
2023-11-30T03:46:05.860Z,95203.41
2023-11-30T03:48:37.476Z,95193.50
2023-11-30T03:51:09.207Z,95186.94
2023-11-30T03:53:40.845Z,95187.69
2023-11-30T03:56:12.570Z,95191.31
2023-11-30T03:58:44.127Z,95187.13
2023-11-30T04:01:23.806Z,95172.69
2023-11-30T04:03:55.448Z,95190.03
2023-11-30T04:06:27.022Z,95182.03
2023-11-30T04:09:00.445Z,95173.19
2023-11-30T04:11:32.071Z,95182.28
2023-11-30T04:14:08.628Z,95172.69
2023-11-30T04:16:40.330Z,95180.41
2023-11-30T04:19:11.904Z,95188.34
2023-11-30T04:21:43.465Z,95187.81
2023-11-30T04:24:17.074Z,95180.88
2023-11-30T04:26:48.741Z,95174.16
2023-11-30T04:29:20.456Z,95169.63
2023-11-30T04:31:52.112Z,95159.56
2023-11-30T04:34:23.758Z,95155.50
2023-11-30T04:36:55.320Z,95163.63
2023-11-30T04:39:26.906Z,95151.53
2023-11-30T04:41:58.587Z,95138.16
2023-11-30T04:44:30.386Z,95136.34
2023-11-30T04:47:01.939Z,95127.75
2023-11-30T04:49:33.687Z,95136.06
2023-11-30T04:52:05.442Z,95132.31
2023-11-30T04:54:39.195Z,95128.25
2023-11-30T04:57:11.230Z,95126.75
2023-11-30T04:59:42.809Z,95121.53
2023-11-30T05:02:14.529Z,95117.00
2023-11-30T05:04:46.248Z,95110.38
2023-11-30T05:07:17.852Z,95110.53
2023-11-30T05:09:49.441Z,95094.31
2023-11-30T05:12:21.373Z,95094.53
2023-11-30T05:14:52.964Z,95084.94
2023-11-30T05:17:24.550Z,95088.00
2023-11-30T05:19:56.688Z,95076.47
2023-11-30T05:22:28.233Z,95080.50
2023-11-30T05:24:59.716Z,95084.16
2023-11-30T05:27:31.253Z,95080.50
2023-11-30T05:30:04.531Z,95082.13
2023-11-30T05:32:36.080Z,95076.47
2023-11-30T05:35:08.476Z,95064.81
2023-11-30T05:37:40.031Z,95065.44
2023-11-30T05:40:12.794Z,95060.47
2023-11-30T05:42:44.433Z,95061.78
2023-11-30T05:45:16.049Z,95067.44
2023-11-30T05:47:47.687Z,95051.47
2023-11-30T05:50:20.282Z,95040.78
2023-11-30T05:52:51.851Z,95032.75
2023-11-30T05:55:23.402Z,95042.00
2023-11-30T05:57:55.641Z,95048.13
2023-11-30T06:00:27.839Z,95052.22
2023-11-30T06:02:59.541Z,95043.25
2023-11-30T06:05:31.220Z,95050.63
2023-11-30T06:08:02.835Z,95041.41
2023-11-30T06:10:34.415Z,95029.88
2023-11-30T06:13:08.379Z,95029.03
2023-11-30T06:15:40.045Z,95016.28
2023-11-30T06:18:11.945Z,95018.03
2023-11-30T06:20:43.557Z,95010.94
2023-11-30T06:23:15.179Z,95011.03
2023-11-30T06:25:46.701Z,95010.72
2023-11-30T06:28:18.319Z,95016.00
2023-11-30T06:30:49.913Z,95009.84
2023-11-30T06:33:21.534Z,95007.31
2023-11-30T06:35:53.101Z,95003.66
2023-11-30T06:38:24.940Z,95009.75
2023-11-30T06:40:56.490Z,95007.94
2023-11-30T06:43:29.969Z,94995.34
2023-11-30T06:46:01.525Z,94997.16
2023-11-30T06:48:33.465Z,94992.88
2023-11-30T06:51:08.007Z,95005.03
2023-11-30T06:53:39.624Z,94997.47
2023-11-30T06:56:14.524Z,94986.38
2023-11-30T06:58:46.134Z,94989.88
2023-11-30T07:01:17.763Z,94993.31
2023-11-30T07:03:49.592Z,94992.66
2023-11-30T07:06:22.405Z,94983.88
2023-11-30T07:08:54.122Z,94988.66
2023-11-30T07:11:25.649Z,94989.16
2023-11-30T07:13:57.304Z,94992.44
2023-11-30T07:16:29.278Z,95001.25
2023-11-30T07:19:01.046Z,95012.09
2023-11-30T07:21:32.648Z,95007.25
2023-11-30T07:24:04.775Z,95005.31
2023-11-30T07:26:36.827Z,95013.91
2023-11-30T07:29:08.497Z,95008.31
2023-11-30T07:31:40.146Z,94996.97
2023-11-30T07:34:11.836Z,95000.97
2023-11-30T07:36:43.632Z,94995.19
2023-11-30T07:39:15.215Z,94997.34
2023-11-30T07:41:46.873Z,95000.38
2023-11-30T07:44:18.396Z,94999.88
2023-11-30T07:46:49.979Z,95003.47
2023-11-30T07:49:21.492Z,94996.34
2023-11-30T07:51:53.136Z,94992.84
2023-11-30T07:54:25.571Z,94996.81
2023-11-30T07:56:57.397Z,94993.41
2023-11-30T07:59:29.015Z,94994.88
2023-11-30T08:02:01.483Z,94995.66
2023-11-30T08:04:33.766Z,94998.97
2023-11-30T08:07:05.343Z,95005.00
2023-11-30T08:09:36.925Z,94991.63
2023-11-30T08:12:08.575Z,95000.88
2023-11-30T08:14:40.164Z,95002.72
2023-11-30T08:17:11.899Z,95006.56
2023-11-30T08:19:44.370Z,95010.59
2023-11-30T08:22:16.174Z,95013.16
2023-11-30T08:24:47.833Z,95012.88
2023-11-30T08:27:19.639Z,95016.13
2023-11-30T08:29:51.529Z,95021.72
2023-11-30T08:32:23.263Z,95014.16
2023-11-30T08:34:54.993Z,95007.75
2023-11-30T08:37:26.591Z,94994.16
2023-11-30T08:40:00.626Z,94989.72
2023-11-30T08:42:32.319Z,94993.75
2023-11-30T08:45:06.182Z,95000.06
2023-11-30T08:47:37.950Z,94988.72
2023-11-30T08:50:10.140Z,94985.44
2023-11-30T08:52:41.762Z,94989.50
2023-11-30T08:55:13.808Z,94991.75
2023-11-30T08:57:45.596Z,94998.06
2023-11-30T09:00:20.592Z,94989.97
2023-11-30T09:02:52.580Z,94979.41
2023-11-30T09:05:24.979Z,94985.44
2023-11-30T09:07:56.734Z,94979.41
2023-11-30T09:10:28.832Z,94974.16
2023-11-30T09:13:03.909Z,94970.81
2023-11-30T09:15:35.820Z,94971.31
2023-11-30T09:18:09.152Z,94973.09
2023-11-30T09:20:40.927Z,94961.25
2023-11-30T09:23:12.793Z,94960.22
2023-11-30T09:25:44.931Z,94957.72
2023-11-30T09:28:19.810Z,94962.25
2023-11-30T09:30:57.164Z,94964.53
2023-11-30T09:33:39.457Z,94965.00
2023-11-30T09:36:17.760Z,94958.97
2023-11-30T09:39:11.747Z,94961.25
2023-11-30T09:42:22.134Z,94953.19
2023-11-30T09:45:09.034Z,94953.44
2023-11-30T09:47:44.070Z,94951.16
2023-11-30T09:50:24.085Z,94951.41
2023-11-30T09:53:04.851Z,94948.63
2023-11-30T09:55:40.017Z,94940.34
2023-11-30T09:58:12.449Z,94937.03
2023-11-30T10:01:23.725Z,94939.31
2023-11-30T10:04:25.190Z,94924.44
2023-11-30T10:07:13.703Z,94917.06
2023-11-30T10:10:15.539Z,94925.88
2023-11-30T10:13:09.789Z,94927.94
2023-11-30T10:16:25.088Z,94920.91
2023-11-30T10:19:14.818Z,94923.91
2023-11-30T10:22:02.087Z,94921.41
2023-11-30T10:24:49.810Z,94913.59
2023-11-30T10:27:23.964Z,94899.22
2023-11-30T10:30:03.999Z,94892.41
2023-11-30T10:32:47.117Z,94891.66
2023-11-30T10:35:21.503Z,94883.06
2023-11-30T10:37:55.250Z,94881.56
2023-11-30T10:40:37.620Z,94885.84
2023-11-30T10:43:13.336Z,94884.06
2023-11-30T10:45:47.135Z,94886.31
2023-11-30T10:50:53.234Z,94894.16
2023-11-30T10:53:44.076Z,94896.94
2023-11-30T10:56:19.082Z,94889.63
2023-11-30T10:58:54.337Z,94877.25
2023-11-30T11:01:28.172Z,94887.84
2023-11-30T11:04:00.353Z,94869.19
2023-11-30T11:12:51.665Z,94869.94
2023-11-30T11:15:35.884Z,94862.66
2023-11-30T11:18:14.880Z,94873.97
2023-11-30T11:20:59.395Z,94863.91
2023-11-30T11:23:50.015Z,94863.41
2023-11-30T11:37:06.415Z,94852.81
2023-11-30T11:39:38.634Z,94856.38
2023-11-30T11:42:10.331Z,94852.31
2023-11-30T11:44:42.040Z,94860.84
2023-11-30T11:47:13.719Z,94857.75
2023-11-30T11:49:46.062Z,94854.81
2023-11-30T11:52:22.804Z,94855.00
2023-11-30T11:55:05.073Z,94856.75
2023-11-30T11:57:39.808Z,94858.78
2023-11-30T12:00:19.244Z,94852.47
2023-11-30T12:02:52.640Z,94846.16
2023-11-30T12:05:27.171Z,94843.66
2023-11-30T12:08:02.674Z,94845.66
2023-11-30T12:10:43.500Z,94841.53
2023-11-30T12:13:16.208Z,94841.53
2023-11-30T12:15:50.475Z,94840.78
2023-11-30T12:18:22.682Z,94837.03
2023-11-30T12:20:54.301Z,94826.56
2023-11-30T12:23:25.894Z,94833.91
2023-11-30T12:25:57.682Z,94833.78
2023-11-30T12:28:39.144Z,94823.16
2023-11-30T12:31:10.815Z,94830.78
2023-11-30T12:33:42.542Z,94824.25
2023-11-30T12:36:15.320Z,94825.22
2023-11-30T12:38:47.014Z,94825.38
2023-11-30T12:41:18.653Z,94824.66
2023-11-30T12:43:50.288Z,94833.19
2023-11-30T12:46:21.953Z,94824.50
2023-11-30T12:48:54.051Z,94824.03
2023-11-30T12:51:26.063Z,94822.81
2023-11-30T12:53:57.805Z,94818.00
2023-11-30T12:56:29.498Z,94809.63
2023-11-30T12:59:01.420Z,94825.03
2023-11-30T13:01:33.113Z,94817.88
2023-11-30T13:04:05.362Z,94817.19
2023-11-30T13:06:37.086Z,94815.19
2023-11-30T13:09:15.358Z,94811.63
2023-11-30T13:11:47.078Z,94816.19
2023-11-30T13:14:19.285Z,94819.72
2023-11-30T13:16:51.077Z,94818.75
2023-11-30T13:19:24.841Z,94816.47
2023-11-30T13:21:57.294Z,94817.72
2023-11-30T13:24:29.044Z,94822.72
2023-11-30T13:27:00.770Z,94823.09
2023-11-30T13:29:32.353Z,94826.31
2023-11-30T13:32:05.513Z,94828.84
2023-11-30T13:34:38.881Z,94832.88
2023-11-30T13:37:10.582Z,94831.84
2023-11-30T13:39:42.217Z,94837.22
2023-11-30T13:42:13.929Z,94832.34
2023-11-30T13:44:45.687Z,94845.47
2023-11-30T13:47:18.017Z,94845.22
2023-11-30T13:49:49.593Z,94846.97
2023-11-30T13:52:21.248Z,94854.03
2023-11-30T13:54:52.939Z,94851.50
2023-11-30T13:57:24.543Z,94844.84
2023-11-30T13:59:57.113Z,94840.50
2023-11-30T14:02:28.946Z,94838.66
2023-11-30T14:05:00.639Z,94844.53
2023-11-30T14:07:34.191Z,94837.97
2023-11-30T14:10:11.090Z,94844.06
2023-11-30T14:12:43.793Z,94843.03
2023-11-30T14:15:15.720Z,94848.34
2023-11-30T14:17:47.372Z,94837.47
2023-11-30T14:20:21.151Z,94842.50
2023-11-30T14:22:53.200Z,94838.50
2023-11-30T14:25:26.874Z,94842.03
2023-11-30T14:28:03.495Z,94845.50
2023-11-30T14:30:39.493Z,94837.97
2023-11-30T14:33:13.369Z,94841.06
2023-11-30T14:35:45.894Z,94842.63
2023-11-30T14:38:17.570Z,94848.63
2023-11-30T14:40:49.198Z,94842.53
2023-11-30T14:43:20.819Z,94842.50
2023-11-30T14:45:52.408Z,94841.53
2023-11-30T14:48:26.850Z,94840.88
2023-11-30T14:50:58.543Z,94837.13
2023-11-30T14:53:30.562Z,94836.06
2023-11-30T14:56:03.173Z,94837.28
2023-11-30T14:58:34.805Z,94845.59
2023-11-30T15:01:11.560Z,94847.59
2023-11-30T15:03:43.400Z,94844.59
2023-11-30T15:06:15.122Z,94842.53
2023-11-30T15:08:46.818Z,94846.56
2023-11-30T15:11:18.515Z,94845.81
2023-11-30T15:13:50.140Z,94845.59
2023-11-30T15:16:23.040Z,94840.28
2023-11-30T15:18:54.728Z,94849.09
2023-11-30T15:21:26.661Z,94848.59
2023-11-30T15:23:58.308Z,94852.22
2023-11-30T15:26:29.976Z,94843.56
2023-11-30T15:29:01.632Z,94841.13
2023-11-30T15:31:33.384Z,94841.81
2023-11-30T15:34:05.174Z,94842.53
2023-11-30T15:36:37.090Z,94838.00
2023-11-30T15:39:17.006Z,94841.53
2023-11-30T15:41:48.731Z,94849.09
2023-11-30T15:44:20.343Z,94845.34
2023-11-30T15:46:51.987Z,94848.38
2023-11-30T15:49:24.911Z,94839.25
2023-11-30T15:51:56.646Z,94848.63
2023-11-30T15:54:28.268Z,94854.22
2023-11-30T15:57:00.211Z,94856.00
2023-11-30T15:59:31.864Z,94867.56
2023-11-30T16:02:03.809Z,94861.72
2023-11-30T16:04:36.031Z,94854.38
2023-11-30T16:07:07.783Z,94856.88
2023-11-30T16:09:39.545Z,94862.72
2023-11-30T16:12:11.462Z,94867.03
2023-11-30T16:14:43.151Z,94872.97
2023-11-30T16:17:14.761Z,94859.78
2023-11-30T16:19:46.533Z,94871.31
2023-11-30T16:22:18.435Z,94859.25
2023-11-30T16:24:50.344Z,94866.41
2023-11-30T16:27:22.156Z,94879.47
2023-11-30T16:29:54.586Z,94875.19
2023-11-30T16:32:26.266Z,94872.00
2023-11-30T16:34:57.935Z,94862.34
2023-11-30T16:37:29.526Z,94860.13
2023-11-30T16:40:01.699Z,94853.28
2023-11-30T16:42:33.564Z,94847.66
2023-11-30T16:45:07.320Z,94856.78
2023-11-30T16:47:39.449Z,94862.00
2023-11-30T16:50:15.512Z,94862.69
2023-11-30T16:52:48.994Z,94864.69
2023-11-30T16:55:22.746Z,94856.63
2023-11-30T16:57:54.435Z,94858.66
2023-11-30T17:00:26.122Z,94862.75
2023-11-30T17:02:58.127Z,94868.34
2023-11-30T17:05:30.269Z,94866.94
2023-11-30T17:08:02.243Z,94858.28
2023-11-30T17:10:33.855Z,94856.97
2023-11-30T17:13:05.719Z,94849.06
2023-11-30T17:15:37.671Z,94849.56
2023-11-30T17:18:09.366Z,94855.59
2023-11-30T17:20:42.061Z,94864.97
2023-11-30T17:23:13.985Z,94867.28
2023-11-30T17:25:45.609Z,94851.97
2023-11-30T17:28:17.223Z,94841.06
2023-11-30T17:30:48.901Z,94845.41
2023-11-30T17:33:20.726Z,94854.66
2023-11-30T17:35:52.570Z,94867.53
2023-11-30T17:38:24.246Z,94870.25
2023-11-30T17:40:55.902Z,94883.53
2023-11-30T17:43:27.570Z,94878.91
2023-11-30T17:45:59.346Z,94876.84
2023-11-30T17:48:31.049Z,94875.22
2023-11-30T17:51:02.663Z,94874.50
2023-11-30T17:53:35.802Z,94880.59
2023-11-30T17:56:08.066Z,94879.75
2023-11-30T17:58:39.789Z,94882.41
2023-11-30T18:01:11.481Z,94882.88
2023-11-30T18:03:43.234Z,94868.88
2023-11-30T18:06:14.948Z,94871.31
2023-11-30T18:08:47.266Z,94871.78
2023-11-30T18:11:19.286Z,94869.78
2023-11-30T18:13:51.026Z,94882.88
2023-11-30T18:16:22.744Z,94873.75
2023-11-30T18:18:55.510Z,94857.91
2023-11-30T18:21:30.109Z,94855.19
2023-11-30T18:24:01.940Z,94851.13
2023-11-30T18:26:33.520Z,94863.38
2023-11-30T18:29:05.110Z,94846.88
2023-11-30T18:31:37.497Z,94850.94
2023-11-30T18:34:09.360Z,94842.09
2023-11-30T18:36:41.164Z,94843.84
2023-11-30T18:39:14.550Z,94851.22
2023-11-30T18:41:46.250Z,94858.22
2023-11-30T18:44:18.005Z,94854.19
2023-11-30T18:46:49.798Z,94849.09
2023-11-30T18:49:21.528Z,94850.13
2023-11-30T18:51:53.298Z,94846.53
2023-11-30T18:54:25.162Z,94849.00
2023-11-30T18:56:56.863Z,94826.38
2023-11-30T18:59:28.982Z,94824.03
2023-11-30T19:02:00.784Z,94833.78
2023-11-30T19:04:33.676Z,94829.78
2023-11-30T19:07:05.376Z,94813.47
2023-11-30T19:09:37.216Z,94816.00
2023-11-30T19:12:09.668Z,94816.44
2023-11-30T19:14:41.313Z,94815.19
2023-11-30T19:17:12.952Z,94818.63
2023-11-30T19:19:44.894Z,94823.28
2023-11-30T19:22:18.322Z,94827.00
2023-11-30T19:24:50.191Z,94843.88
2023-11-30T19:27:21.853Z,94854.63
2023-11-30T19:29:53.479Z,94854.06
2023-11-30T19:32:25.120Z,94864.31
2023-11-30T19:34:56.723Z,94849.69
2023-11-30T19:37:28.423Z,94857.19
2023-11-30T19:40:02.074Z,94868.97
2023-11-30T19:42:34.018Z,94882.94
2023-11-30T19:45:06.409Z,94878.28
2023-11-30T19:47:38.137Z,94871.19
2023-11-30T19:50:10.930Z,94863.63
2023-11-30T19:52:42.723Z,94876.06
2023-11-30T19:55:14.492Z,94866.41
2023-11-30T19:57:46.854Z,94868.16
2023-11-30T20:00:18.920Z,94867.97
2023-11-30T20:02:50.543Z,94863.22
2023-11-30T20:05:23.414Z,94864.16
2023-11-30T20:07:55.026Z,94866.66
2023-11-30T20:10:27.049Z,94868.41
2023-11-30T20:12:58.790Z,94877.75
2023-11-30T20:15:31.576Z,94886.59
2023-11-30T20:18:05.127Z,94881.84
2023-11-30T20:20:36.828Z,94874.25
2023-11-30T20:23:08.485Z,94875.22
2023-11-30T20:25:40.083Z,94873.28
2023-11-30T20:28:11.805Z,94880.09
2023-11-30T20:30:43.492Z,94881.84
2023-11-30T20:33:15.183Z,94879.75
2023-11-30T20:35:46.780Z,94888.63
2023-11-30T20:38:18.421Z,94878.47
2023-11-30T20:40:51.518Z,94884.28
2023-11-30T20:43:23.111Z,94884.47
2023-11-30T20:45:54.797Z,94891.53
2023-11-30T20:48:26.581Z,94899.75
2023-11-30T20:50:58.130Z,94905.59
2023-11-30T20:53:29.748Z,94891.34
2023-11-30T20:56:01.496Z,94901.25
2023-11-30T20:58:33.201Z,94906.06
2023-11-30T21:01:05.494Z,94911.63
2023-11-30T21:03:37.365Z,94900.03
2023-11-30T21:06:09.862Z,94894.28
2023-11-30T21:08:41.530Z,94894.47
2023-11-30T21:11:14.793Z,94898.75
2023-11-30T21:13:46.440Z,94892.94
2023-11-30T21:16:19.561Z,94887.88
2023-11-30T21:18:51.597Z,94884.88
2023-11-30T21:21:23.363Z,94891.94
2023-11-30T21:23:55.146Z,94905.16
2023-11-30T21:26:26.832Z,94894.53
2023-11-30T21:28:58.496Z,94898.13
2023-11-30T21:31:30.583Z,94900.03
2023-11-30T21:34:02.383Z,94898.50
2023-11-30T21:36:34.114Z,94905.72
2023-11-30T21:39:05.777Z,94913.06
2023-11-30T21:41:37.434Z,94894.94
2023-11-30T21:44:09.122Z,94916.81
2023-11-30T21:46:40.779Z,94906.19
2023-11-30T21:49:14.344Z,94890.19
2023-11-30T21:51:45.967Z,94897.63
2023-11-30T21:54:17.588Z,94900.34
2023-11-30T21:56:49.239Z,94895.88
2023-11-30T21:59:20.919Z,94889.03
2023-11-30T22:01:52.782Z,94883.59
2023-11-30T22:04:24.591Z,94878.91
2023-11-30T22:06:56.768Z,94881.09
2023-11-30T22:09:29.115Z,94889.38
2023-11-30T22:12:04.324Z,94881.94
2023-11-30T22:14:36.190Z,94879.78
2023-11-30T22:17:07.888Z,94892.38
2023-11-30T22:19:39.659Z,94889.25
2023-11-30T22:22:11.405Z,94886.63
2023-11-30T22:24:43.076Z,94890.78
2023-11-30T22:27:14.740Z,94891.06
2023-11-30T22:29:46.460Z,94905.00
2023-11-30T22:32:18.136Z,94900.94
2023-11-30T22:34:49.816Z,94891.72
2023-11-30T22:37:21.609Z,94893.53
2023-11-30T22:39:53.393Z,94901.84
2023-11-30T22:42:27.039Z,94901.97
2023-11-30T22:44:59.569Z,94908.63
2023-11-30T22:47:31.301Z,94909.53
2023-11-30T22:50:05.073Z,94906.59
2023-11-30T22:52:36.894Z,94911.50
2023-11-30T22:55:09.662Z,94911.59
2023-11-30T22:57:41.420Z,94910.09
2023-11-30T23:00:21.136Z,94898.28
2023-11-30T23:02:53.677Z,94898.06
2023-11-30T23:05:25.549Z,94891.53
2023-11-30T23:07:57.537Z,94902.53
2023-11-30T23:10:29.137Z,94907.53
2023-11-30T23:13:01.246Z,94899.22
2023-11-30T23:15:33.088Z,94900.50
2023-11-30T23:18:04.892Z,94902.09
2023-11-30T23:20:36.588Z,94897.09
2023-11-30T23:23:08.227Z,94890.50
2023-11-30T23:25:39.858Z,94895.56
2023-11-30T23:28:11.614Z,94893.91
2023-11-30T23:30:43.529Z,94903.00
2023-11-30T23:33:15.355Z,94890.03
2023-11-30T23:35:47.255Z,94884.69
2023-11-30T23:38:19.048Z,94893.97
2023-11-30T23:40:50.738Z,94883.81
2023-11-30T23:43:22.409Z,94875.44
2023-11-30T23:45:54.035Z,94867.25
2023-11-30T23:48:25.795Z,94863.09
2023-11-30T23:50:57.413Z,94865.94
2023-11-30T23:53:29.221Z,94863.63
2023-11-30T23:56:00.842Z,94857.25
2023-11-30T23:58:32.525Z,94863.84
